| time (UTC) | temp C | wind direction | speed KPH | gust KPH | rain 1hr cm | rain 24hr cm | rain mn cm | humidity % | barometer mb |
| 20260901092738 | 22 | 165 | 3.2 | 12.9 | 0.00 | 0.03 | 0.00 | 61 | 1022.0 |
| 20260901092238 | 22 | 240 | 0.0 | 9.7 | 0.00 | 0.03 | 0.00 | 60 | 1022.1 |
| 20260901091738 | 22 | 220 | 3.2 | 8.0 | 0.00 | 0.03 | 0.00 | 59 | 1022.0 |
| 20260901091238 | 22 | 250 | 6.4 | 9.7 | 0.00 | 0.03 | 0.00 | 62 | 1022.1 |
| 20260901090738 | 22 | 269 | 3.2 | 6.4 | 0.00 | 0.03 | 0.00 | 62 | 1022.0 |
| 20260901090239 | 22 | 265 | 1.6 | 6.4 | 0.00 | 0.03 | 0.00 | 65 | 1022.0 |
| 20260901085738 | 21 | 344 | 4.8 | 6.4 | 0.00 | 0.03 | 0.00 | 67 | 1022.0 |
| 20260901085238 | 21 | 156 | 1.6 | 4.8 | 0.00 | 0.03 | 0.00 | 65 | 1022.0 |
| 20260901084738 | 21 | 223 | 3.2 | 4.8 | 0.00 | 0.03 | 0.00 | 67 | 1022.0 |
| 20260901084237 | 21 | 284 | 1.6 | 4.8 | 0.00 | 0.03 | 0.00 | 69 | 1022.0 |
| 20260901083738 | 21 | 71 | 1.6 | 4.8 | 0.00 | 0.03 | 0.00 | 70 | 1022.0 |
| 20260901083237 | 21 | 189 | 1.6 | 3.2 | 0.00 | 0.03 | 0.00 | 69 | 1022.0 |
| 20260901082738 | 21 | 211 | 1.6 | 3.2 | 0.00 | 0.03 | 0.00 | 70 | 1022.0 |
| 20260901082237 | 21 | 118 | 3.2 | 4.8 | 0.00 | 0.03 | 0.00 | 71 | 1022.1 |
| 20260901081739 | 20 | 103 | 3.2 | 8.0 | 0.00 | 0.03 | 0.00 | 72 | 1022.1 |
| 20260901081239 | 20 | 215 | 0.0 | 3.2 | 0.00 | 0.03 | 0.00 | 71 | 1022.1 |
| 20260901080739 | 20 | 258 | 1.6 | 6.4 | 0.00 | 0.03 | 0.00 | 73 | 1022.1 |
| 20260901080239 | 20 | 286 | 1.6 | 8.0 | 0.00 | 0.03 | 0.00 | 74 | 1022.1 |
| 20260901075739 | 19 | 225 | 6.4 | 8.0 | 0.00 | 0.03 | 0.00 | 75 | 1022.1 |
| 20260901075238 | 19 | 321 | 3.2 | 6.4 | 0.00 | 0.03 | 0.00 | 77 | 1022.0 |
| 20260901074739 | 18 | 157 | 1.6 | 6.4 | 0.00 | 0.03 | 0.00 | 78 | 1022.0 |
| 20260901074237 | 18 | 229 | 4.8 | 8.0 | 0.00 | 0.03 | 0.00 | 78 | 1022.0 |
| 20260901073739 | 18 | 219 | 3.2 | 4.8 | 0.00 | 0.03 | 0.00 | 80 | 1021.9 |
| 20260901073238 | 18 | 181 | 4.8 | 9.7 | 0.00 | 0.03 | 0.00 | 79 | 1021.8 |
| 20260901072738 | 18 | 240 | 3.2 | 8.0 | 0.00 | 0.03 | 0.00 | 81 | 1021.8 |
| 20260901072239 | 17 | 223 | 1.6 | 8.0 | 0.00 | 0.03 | 0.00 | 83 | 1021.8 |
| 20260901071738 | 17 | 158 | 4.8 | 8.0 | 0.00 | 0.03 | 0.00 | 84 | 1021.8 |
| 20260901071238 | 17 | 245 | 3.2 | 6.4 | 0.00 | 0.03 | 0.00 | 86 | 1021.9 |
| 20260901070737 | 16 | 223 | 0.0 | 1.6 | 0.00 | 0.03 | 0.00 | 87 | 1021.9 |
| 20260901070238 | 16 | 125 | 0.0 | 3.2 | 0.00 | 0.03 | 0.00 | 88 | 1021.9 |
| 20260901065739 | 16 | 199 | 0.0 | 3.2 | 0.00 | 0.03 | 0.00 | 89 | 1021.9 |
| 20260901065238 | 16 | 178 | 0.0 | 3.2 | 0.00 | 0.03 | 0.00 | 89 | 1021.9 |
| 20260901064738 | 15 | 196 | 0.0 | 1.6 | 0.00 | 0.03 | 0.00 | 89 | 1021.9 |
| 20260901064238 | 15 | 133 | 0.0 | 1.6 | 0.00 | 0.03 | 0.00 | 90 | 1021.8 |
| 20260901063738 | 15 | 158 | 0.0 | 1.6 | 0.00 | 0.03 | 0.00 | 90 | 1021.8 |
| 20260901063239 | 15 | 144 | 0.0 | 1.6 | 0.00 | 0.03 | 0.00 | 90 | 1021.8 |
| 20260901062739 | 14 | 150 | 0.0 | 0.0 | 0.00 | 0.03 | 0.00 | 89 | 1021.8 |
| 20260901062238 | 14 | 157 | 0.0 | 0.0 | 0.00 | 0.03 | 0.00 | 89 | 1021.8 |
| 20260901061738 | 13 | 157 | 0.0 | 0.0 | 0.00 | 0.03 | 0.00 | 89 | 1021.8 |
| 20260901061239 | 13 | 157 | 0.0 | 0.0 | 0.00 | 0.03 | 0.00 | 89 | 1021.8 |
| 20260901060738 | 13 | 163 | 0.0 | 0.0 | 0.00 | 0.03 | 0.00 | 88 | 1021.8 |
| 20260901060238 | 13 | 167 | 0.0 | 0.0 | 0.00 | 0.03 | 0.00 | 88 | 1021.7 |
| 20260901055737 | 13 | 167 | 0.0 | 0.0 | 0.00 | 0.03 | 0.00 | 88 | 1021.6 |
| 20260901055238 | 13 | 169 | 0.0 | 1.6 | 0.00 | 0.03 | 0.00 | 88 | 1021.6 |
| 20260901054738 | 13 | 143 | 0.0 | 1.6 | 0.00 | 0.03 | 0.00 | 88 | 1021.5 |
| 20260901054238 | 13 | 125 | 0.0 | 0.0 | 0.00 | 0.03 | 0.00 | 88 | 1021.5 |
| 20260901053737 | 13 | 121 | 0.0 | 0.0 | 0.00 | 0.03 | 0.00 | 88 | 1021.4 |
| 20260901053237 | 13 | 121 | 0.0 | 1.6 | 0.00 | 0.03 | 0.00 | 87 | 1021.4 |
| 20260901052738 | 13 | 123 | 0.0 | 1.6 | 0.00 | 0.03 | 0.00 | 87 | 1021.4 |
| 20260901052238 | 13 | 128 | 0.0 | 1.6 | 0.00 | 0.03 | 0.00 | 87 | 1021.4 |
| 20260901051738 | 13 | 128 | 0.0 | 1.6 | 0.00 | 0.03 | 0.00 | 87 | 1021.4 |
| 20260901051238 | 13 | 128 | 0.0 | 1.6 | 0.00 | 0.03 | 0.00 | 87 | 1021.3 |
| 20260901050738 | 13 | 123 | 0.0 | 0.0 | 0.00 | 0.03 | 0.00 | 87 | 1021.4 |
| 20260901050239 | 13 | 123 | 0.0 | 1.6 | 0.00 | 0.03 | 0.00 | 87 | 1021.3 |
| 20260901045739 | 13 | 131 | 0.0 | 3.2 | 0.00 | 0.03 | 0.00 | 87 | 1021.4 |
| 20260901045238 | 13 | 161 | 0.0 | 3.2 | 0.00 | 0.03 | 0.00 | 87 | 1021.3 |
| 20260901044738 | 14 | 161 | 0.0 | 1.6 | 0.00 | 0.03 | 0.00 | 87 | 1021.3 |
| 20260901044239 | 14 | 157 | 0.0 | 1.6 | 0.00 | 0.03 | 0.00 | 87 | 1021.3 |
| 20260901043738 | 14 | 161 | 1.6 | 3.2 | 0.00 | 0.03 | 0.00 | 87 | 1021.2 |
| 20260901043238 | 14 | 164 | 0.0 | 3.2 | 0.00 | 0.03 | 0.00 | 86 | 1021.2 |
| 20260901042738 | 14 | 171 | 1.6 | 3.2 | 0.00 | 0.03 | 0.00 | 86 | 1021.3 |
| 20260901042238 | 14 | 171 | 0.0 | 0.0 | 0.00 | 0.03 | 0.00 | 86 | 1021.3 |
| 20260901041738 | 15 | 171 | 0.0 | 0.0 | 0.00 | 0.03 | 0.00 | 86 | 1021.2 |
| 20260901041239 | 15 | 171 | 0.0 | 0.0 | 0.00 | 0.03 | 0.00 | 86 | 1021.2 |
| 20260901040738 | 15 | 170 | 0.0 | 0.0 | 0.00 | 0.03 | 0.00 | 86 | 1021.2 |
| 20260901040239 | 15 | 175 | 0.0 | 0.0 | 0.00 | 0.03 | 0.00 | 86 | 1021.2 |
| 20260901035738 | 15 | 174 | 0.0 | 1.6 | 0.00 | 0.03 | 0.00 | 87 | 1021.1 |
| 20260901035240 | 15 | 155 | 3.2 | 4.8 | 0.00 | 0.03 | 0.00 | 87 | 1021.1 |
| 20260901034738 | 15 | 150 | 0.0 | 3.2 | 0.00 | 0.03 | 0.00 | 87 | 1021.1 |
| 20260901034237 | 15 | 158 | 1.6 | 3.2 | 0.00 | 0.03 | 0.00 | 86 | 1021.0 |
| 20260901033737 | 15 | 169 | 1.6 | 3.2 | 0.00 | 0.03 | 0.00 | 86 | 1021.0 |
| 20260901033237 | 15 | 248 | 0.0 | 1.6 | 0.00 | 0.03 | 0.00 | 86 | 1021.0 |
| 20260901032737 | 15 | 248 | 0.0 | 1.6 | 0.00 | 0.03 | 0.00 | 86 | 1021.0 |
| 20260901032237 | 15 | 294 | 0.0 | 0.0 | 0.00 | 0.03 | 0.00 | 86 | 1021.0 |
| 20260901031738 | 15 | 298 | 0.0 | 1.6 | 0.00 | 0.03 | 0.00 | 86 | 1020.9 |
| 20260901031012 | 15 | 294 | 0.0 | 3.2 | 0.00 | 0.03 | 0.00 | 86 | 1020.9 |
| 20260901030511 | 15 | 34 | 0.0 | 0.0 | 0.00 | 0.03 | 0.00 | 86 | 1020.9 |
| 20260901030012 | 15 | 38 | 0.0 | 1.6 | 0.00 | 0.03 | 0.00 | 86 | 1020.9 |
| 20260901025513 | 15 | 53 | 0.0 | 4.8 | 0.00 | 0.03 | 0.00 | 86 | 1021.0 |
| 20260901025011 | 15 | 18 | 0.0 | 3.2 | 0.00 | 0.03 | 0.00 | 86 | 1020.9 |
| 20260901024513 | 15 | 115 | 0.0 | 1.6 | 0.00 | 0.03 | 0.00 | 86 | 1020.9 |
| 20260901024013 | 15 | 115 | 0.0 | 0.0 | 0.00 | 0.03 | 0.00 | 86 | 1020.9 |
| 20260901023513 | 15 | 115 | 0.0 | 0.0 | 0.00 | 0.03 | 0.00 | 86 | 1020.9 |
| 20260901023012 | 15 | 115 | 0.0 | 0.0 | 0.00 | 0.03 | 0.00 | 86 | 1020.8 |
| 20260901022513 | 15 | 115 | 0.0 | 1.6 | 0.00 | 0.03 | 0.00 | 86 | 1020.9 |
| 20260901022012 | 15 | 115 | 0.0 | 1.6 | 0.00 | 0.03 | 0.00 | 86 | 1020.9 |
| 20260901021512 | 15 | 115 | 0.0 | 0.0 | 0.00 | 0.03 | 0.00 | 86 | 1020.9 |
| 20260901021012 | 15 | 115 | 0.0 | 0.0 | 0.00 | 0.03 | 0.00 | 86 | 1020.9 |
| 20260901020512 | 15 | 115 | 0.0 | 0.0 | 0.00 | 0.03 | 0.00 | 85 | 1020.9 |
| 20260901020013 | 15 | 115 | 0.0 | 0.0 | 0.00 | 0.03 | 0.00 | 85 | 1020.9 |
| 20260901015512 | 16 | 115 | 0.0 | 1.6 | 0.00 | 0.03 | 0.00 | 85 | 1020.9 |
| 20260901015012 | 16 | 111 | 0.0 | 0.0 | 0.00 | 0.03 | 0.00 | 85 | 1020.9 |
| 20260901014512 | 16 | 111 | 0.0 | 0.0 | 0.00 | 0.03 | 0.00 | 85 | 1020.9 |
| 20260901014012 | 16 | 111 | 1.6 | 3.2 | 0.00 | 0.03 | 0.00 | 86 | 1020.9 |
| 20260901013511 | 16 | 127 | 1.6 | 3.2 | 0.00 | 0.03 | 0.00 | 86 | 1020.9 |
| 20260901013013 | 16 | 174 | 1.6 | 3.2 | 0.00 | 0.03 | 0.00 | 86 | 1020.9 |
| 20260901012513 | 16 | 171 | 1.6 | 4.8 | 0.00 | 0.03 | 0.00 | 86 | 1020.9 |
| 20260901012012 | 15 | 176 | 1.6 | 4.8 | 0.00 | 0.03 | 0.00 | 86 | 1021.0 |
| 20260901011512 | 15 | 163 | 1.6 | 3.2 | 0.00 | 0.03 | 0.00 | 86 | 1020.9 |
| 20260901011012 | 15 | 118 | 0.0 | 1.6 | 0.00 | 0.03 | 0.00 | 86 | 1021.0 |
| 20260901010512 | 15 | 116 | 0.0 | 1.6 | 0.00 | 0.03 | 0.00 | 85 | 1020.9 |
| 20260901010013 | 15 | 117 | 0.0 | 1.6 | 0.00 | 0.03 | 0.00 | 85 | 1020.8 |
| 20260901005511 | 15 | 167 | 0.0 | 1.6 | 0.00 | 0.03 | 0.00 | 85 | 1020.8 |
| 20260901005013 | 15 | 175 | 1.6 | 3.2 | 0.00 | 0.03 | 0.00 | 85 | 1020.7 |
| 20260901004513 | 15 | 130 | 1.6 | 3.2 | 0.00 | 0.03 | 0.00 | 85 | 1020.8 |
| 20260901004012 | 15 | 144 | 1.6 | 3.2 | 0.00 | 0.03 | 0.00 | 85 | 1020.7 |
| 20260901003513 | 15 | 139 | 0.0 | 1.6 | 0.00 | 0.03 | 0.00 | 85 | 1020.8 |
| 20260901003011 | 15 | 139 | 0.0 | 1.6 | 0.00 | 0.03 | 0.00 | 85 | 1020.8 |
| 20260901002511 | 15 | 139 | 0.0 | 0.0 | 0.00 | 0.03 | 0.00 | 85 | 1020.8 |
| 20260901002011 | 15 | 140 | 0.0 | 1.6 | 0.00 | 0.03 | 0.00 | 85 | 1020.8 |
| 20260901001512 | 15 | 139 | 1.6 | 1.6 | 0.00 | 0.03 | 0.00 | 85 | 1020.9 |
| 20260901001012 | 15 | 169 | 0.0 | 3.2 | 0.00 | 0.03 | 0.00 | 85 | 1020.9 |
| 20260901000511 | 15 | 166 | 3.2 | 4.8 | 0.00 | 0.03 | 0.00 | 85 | 1020.9 |
| 20260901000011 | 15 | 157 | 1.6 | 3.2 | 0.00 | 0.03 | 0.00 | 84 | 1020.8 |
| 20260831235512 | 15 | 154 | 1.6 | 3.2 | 0.00 | 0.18 | 0.00 | 84 | 1020.8 |
| 20260831235012 | 15 | 166 | 1.6 | 4.8 | 0.00 | 0.18 | 0.00 | 84 | 1020.9 |
| 20260831234512 | 15 | 168 | 3.2 | 3.2 | 0.00 | 0.18 | 0.00 | 83 | 1020.8 |
| 20260831234012 | 15 | 144 | 0.0 | 3.2 | 0.00 | 0.18 | 0.00 | 82 | 1020.8 |
| 20260831233511 | 15 | 102 | 0.0 | 1.6 | 0.00 | 0.18 | 0.00 | 82 | 1020.8 |
| 20260831233012 | 15 | 65 | 0.0 | 1.6 | 0.00 | 0.18 | 0.00 | 82 | 1020.7 |
| 20260831232513 | 15 | 65 | 0.0 | 1.6 | 0.00 | 0.18 | 0.00 | 82 | 1020.7 |
| 20260831232012 | 15 | 65 | 0.0 | 1.6 | 0.00 | 0.18 | 0.00 | 82 | 1020.6 |
| 20260831231512 | 15 | 65 | 0.0 | 0.0 | 0.00 | 0.18 | 0.00 | 81 | 1020.6 |
| 20260831231013 | 15 | 65 | 0.0 | 1.6 | 0.00 | 0.18 | 0.00 | 81 | 1020.6 |
| 20260831230512 | 15 | 65 | 0.0 | 0.0 | 0.00 | 0.18 | 0.00 | 80 | 1020.6 |
| 20260831230012 | 16 | 65 | 0.0 | 1.6 | 0.00 | 0.18 | 0.00 | 80 | 1020.6 |
| 20260831225512 | 16 | 65 | 0.0 | 1.6 | 0.00 | 0.23 | 0.00 | 80 | 1020.6 |
| 20260831225012 | 16 | 65 | 0.0 | 0.0 | 0.00 | 0.23 | 0.00 | 79 | 1020.7 |
| 20260831224512 | 16 | 65 | 0.0 | 1.6 | 0.00 | 0.23 | 0.00 | 79 | 1020.8 |
| 20260831224011 | 16 | 64 | 0.0 | 3.2 | 0.00 | 0.23 | 0.00 | 78 | 1020.7 |
| 20260831223512 | 16 | 355 | 0.0 | 0.0 | 0.00 | 0.23 | 0.00 | 78 | 1020.7 |
| 20260831223013 | 16 | 355 | 0.0 | 1.6 | 0.00 | 0.23 | 0.00 | 78 | 1020.7 |
| 20260831222512 | 16 | 130 | 0.0 | 0.0 | 0.00 | 0.23 | 0.00 | 78 | 1020.7 |
| 20260831222012 | 17 | 130 | 0.0 | 3.2 | 0.00 | 0.23 | 0.00 | 78 | 1020.6 |
| 20260831221512 | 17 | 120 | 0.0 | 1.6 | 0.00 | 0.23 | 0.00 | 77 | 1020.6 |
| 20260831221011 | 17 | 122 | 0.0 | 3.2 | 0.00 | 0.23 | 0.00 | 77 | 1020.6 |
| 20260831220512 | 17 | 126 | 1.6 | 4.8 | 0.00 | 0.23 | 0.00 | 78 | 1020.6 |
| 20260831220012 | 17 | 144 | 1.6 | 6.4 | 0.00 | 0.23 | 0.00 | 78 | 1020.6 |
| 20260831215512 | 17 | 171 | 1.6 | 8.0 | 0.00 | 0.33 | 0.33 | 78 | 1020.5 |
| 20260831215012 | 17 | 179 | 3.2 | 6.4 | 0.00 | 0.33 | 0.33 | 77 | 1020.5 |
| 20260831214512 | 17 | 180 | 1.6 | 8.0 | 0.00 | 0.33 | 0.33 | 77 | 1020.4 |
| 20260831214012 | 17 | 173 | 1.6 | 4.8 | 0.00 | 0.33 | 0.33 | 77 | 1020.4 |
| 20260831213512 | 17 | 192 | 1.6 | 3.2 | 0.00 | 0.33 | 0.33 | 76 | 1020.3 |
| 20260831213013 | 17 | 152 | 3.2 | 4.8 | 0.00 | 0.33 | 0.33 | 76 | 1020.3 |
| 20260831212513 | 17 | 182 | 1.6 | 6.4 | 0.00 | 0.33 | 0.33 | 75 | 1020.3 |
| 20260831212012 | 18 | 180 | 0.0 | 3.2 | 0.00 | 0.33 | 0.33 | 75 | 1020.3 |
| 20260831211513 | 18 | 145 | 1.6 | 3.2 | 0.00 | 0.33 | 0.33 | 75 | 1020.2 |
| 20260831211012 | 18 | 209 | 0.0 | 3.2 | 0.00 | 0.33 | 0.33 | 74 | 1020.2 |
| 20260831210513 | 18 | 166 | 1.6 | 3.2 | 0.00 | 0.33 | 0.33 | 74 | 1020.2 |
| 20260831210013 | 18 | 182 | 1.6 | 4.8 | 0.00 | 0.33 | 0.33 | 74 | 1020.2 |
| 20260831205512 | 18 | 180 | 1.6 | 4.8 | 0.00 | 0.33 | 0.33 | 73 | 1020.3 |
| 20260831205013 | 18 | 179 | 1.6 | 6.4 | 0.00 | 0.33 | 0.33 | 73 | 1020.2 |
| 20260831204513 | 18 | 176 | 4.8 | 4.8 | 0.00 | 0.33 | 0.33 | 73 | 1020.1 |
| 20260831204012 | 18 | 181 | 3.2 | 6.4 | 0.00 | 0.33 | 0.33 | 73 | 1020.1 |
| 20260831203513 | 18 | 202 | 3.2 | 6.4 | 0.00 | 0.33 | 0.33 | 73 | 1020.1 |
| 20260831203011 | 18 | 166 | 1.6 | 8.0 | 0.00 | 0.33 | 0.33 | 73 | 1020.1 |
| 20260831202511 | 18 | 147 | 4.8 | 9.7 | 0.00 | 0.33 | 0.33 | 73 | 1020.1 |
| 20260831202012 | 18 | 198 | 1.6 | 4.8 | 0.00 | 0.33 | 0.33 | 73 | 1020.0 |
| 20260831201512 | 18 | 171 | 3.2 | 4.8 | 0.00 | 0.33 | 0.33 | 72 | 1020.0 |
| 20260831201011 | 18 | 176 | 3.2 | 6.4 | 0.00 | 0.33 | 0.33 | 72 | 1019.9 |
| 20260831200512 | 18 | 252 | 4.8 | 8.0 | 0.00 | 0.33 | 0.33 | 72 | 1019.9 |
| 20260831200012 | 18 | 191 | 6.4 | 8.0 | 0.00 | 0.33 | 0.33 | 72 | 1019.8 |
| 20260831195512 | 18 | 177 | 4.8 | 8.0 | 0.00 | 0.33 | 0.33 | 71 | 1019.7 |
| 20260831195012 | 18 | 186 | 4.8 | 8.0 | 0.00 | 0.33 | 0.33 | 71 | 1019.6 |
| 20260831194511 | 18 | 176 | 3.2 | 6.4 | 0.00 | 0.33 | 0.33 | 71 | 1019.6 |
| 20260831194013 | 18 | 190 | 4.8 | 8.0 | 0.00 | 0.33 | 0.33 | 71 | 1019.5 |
| 20260831193513 | 18 | 200 | 4.8 | 9.7 | 0.00 | 0.33 | 0.33 | 71 | 1019.4 |
| 20260831193012 | 18 | 199 | 4.8 | 8.0 | 0.00 | 0.33 | 0.33 | 71 | 1019.3 |
| 20260831192512 | 18 | 196 | 6.4 | 11.3 | 0.00 | 0.33 | 0.33 | 71 | 1019.3 |
| 20260831192013 | 18 | 172 | 6.4 | 9.7 | 0.00 | 0.33 | 0.33 | 71 | 1019.2 |
| 20260831191512 | 18 | 198 | 4.8 | 8.0 | 0.00 | 0.33 | 0.33 | 71 | 1019.2 |
| 20260831191013 | 18 | 203 | 4.8 | 11.3 | 0.00 | 0.33 | 0.33 | 71 | 1019.1 |
| 20260831190512 | 18 | 191 | 3.2 | 8.0 | 0.00 | 0.33 | 0.33 | 72 | 1019.2 |
| 20260831190011 | 18 | 171 | 4.8 | 6.4 | 0.00 | 0.33 | 0.33 | 72 | 1019.1 |
| 20260831185511 | 19 | 147 | 3.2 | 4.8 | 0.00 | 0.33 | 0.33 | 71 | 1019.1 |
| 20260831185012 | 19 | 175 | 1.6 | 4.8 | 0.00 | 0.33 | 0.33 | 71 | 1019.1 |
| 20260831184511 | 19 | 187 | 1.6 | 3.2 | 0.00 | 0.33 | 0.33 | 70 | 1019.0 |
| 20260831184011 | 19 | 161 | 3.2 | 3.2 | 0.00 | 0.33 | 0.33 | 70 | 1019.0 |
| 20260831183512 | 19 | 178 | 1.6 | 3.2 | 0.00 | 0.33 | 0.33 | 69 | 1018.9 |
| 20260831183011 | 20 | 165 | 1.6 | 3.2 | 0.00 | 0.33 | 0.33 | 68 | 1018.8 |
| 20260831182512 | 20 | 185 | 3.2 | 4.8 | 0.00 | 0.33 | 0.33 | 67 | 1018.8 |
| 20260831182011 | 20 | 187 | 1.6 | 4.8 | 0.00 | 0.33 | 0.33 | 66 | 1018.7 |
| 20260831181511 | 20 | 173 | 4.8 | 9.7 | 0.00 | 0.33 | 0.33 | 66 | 1018.7 |
| 20260831181013 | 20 | 189 | 6.4 | 9.7 | 0.00 | 0.33 | 0.33 | 65 | 1018.6 |
| 20260831180511 | 20 | 198 | 4.8 | 9.7 | 0.00 | 0.33 | 0.33 | 65 | 1018.7 |
| 20260831180013 | 20 | 188 | 4.8 | 8.0 | 0.00 | 0.33 | 0.33 | 65 | 1018.7 |
| 20260831175513 | 20 | 182 | 3.2 | 8.0 | 0.00 | 0.33 | 0.33 | 65 | 1018.7 |
| 20260831175013 | 20 | 188 | 3.2 | 6.4 | 0.00 | 0.33 | 0.33 | 65 | 1018.6 |
| 20260831174512 | 20 | 185 | 3.2 | 8.0 | 0.00 | 0.33 | 0.33 | 65 | 1018.6 |
| 20260831174011 | 20 | 209 | 4.8 | 11.3 | 0.00 | 0.33 | 0.33 | 65 | 1018.7 |
| 20260831173512 | 20 | 205 | 3.2 | 12.9 | 0.00 | 0.33 | 0.33 | 65 | 1018.6 |
| 20260831173012 | 20 | 161 | 4.8 | 11.3 | 0.00 | 0.33 | 0.33 | 66 | 1018.7 |
| 20260831172512 | 20 | 153 | 4.8 | 9.7 | 0.00 | 0.33 | 0.33 | 66 | 1018.6 |
| 20260831172011 | 20 | 237 | 4.8 | 11.3 | 0.00 | 0.33 | 0.33 | 66 | 1018.7 |
| 20260831171512 | 20 | 208 | 4.8 | 12.9 | 0.00 | 0.33 | 0.33 | 67 | 1018.7 |
| 20260831171011 | 20 | 204 | 4.8 | 12.9 | 0.00 | 0.33 | 0.33 | 67 | 1018.7 |
| 20260831170512 | 20 | 161 | 6.4 | 17.7 | 0.00 | 0.33 | 0.33 | 67 | 1018.7 |
| 20260831170012 | 20 | 185 | 6.4 | 17.7 | 0.00 | 0.33 | 0.33 | 68 | 1018.6 |
| 20260831165511 | 20 | 210 | 3.2 | 11.3 | 0.00 | 0.33 | 0.33 | 69 | 1018.7 |
| 20260831165011 | 20 | 156 | 6.4 | 11.3 | 0.00 | 0.33 | 0.33 | 70 | 1018.7 |
| 20260831164511 | 20 | 224 | 4.8 | 9.7 | 0.00 | 0.33 | 0.33 | 70 | 1018.7 |
| 20260831164013 | 20 | 171 | 6.4 | 11.3 | 0.00 | 0.33 | 0.33 | 70 | 1018.7 |
| 20260831163512 | 20 | 200 | 6.4 | 14.5 | 0.00 | 0.33 | 0.33 | 70 | 1018.5 |
| 20260831163013 | 20 | 150 | 11.3 | 19.3 | 0.00 | 0.33 | 0.33 | 68 | 1018.4 |
| 20260831162512 | 20 | 194 | 6.4 | 17.7 | 0.00 | 0.33 | 0.33 | 67 | 1018.5 |
| 20260831162013 | 21 | 355 | 14.5 | 29.0 | 0.00 | 0.33 | 0.33 | 66 | 1018.8 |
| 20260831161513 | 21 | 315 | 9.7 | 20.9 | 0.00 | 0.33 | 0.33 | 66 | 1018.7 |
| 20260831161011 | 22 | 271 | 17.7 | 25.7 | 0.00 | 0.33 | 0.33 | 62 | 1018.7 |
| 20260831160511 | 22 | 271 | 14.5 | 30.6 | 0.00 | 0.33 | 0.33 | 60 | 1018.3 |
| 20260831160011 | 23 | 278 | 9.7 | 32.2 | 0.00 | 0.33 | 0.33 | 55 | 1018.3 |
| 20260831155511 | 23 | 239 | 9.7 | 22.5 | 0.00 | 0.33 | 0.33 | 51 | 1018.2 |
| 20260831155011 | 23 | 319 | 17.7 | 40.2 | 0.00 | 0.33 | 0.33 | 49 | 1017.9 |
| 20260831154512 | 24 | 284 | 12.9 | 41.8 | 0.00 | 0.33 | 0.33 | 47 | 1017.7 |
| 20260831154013 | 24 | 242 | 14.5 | 30.6 | 0.00 | 0.33 | 0.33 | 46 | 1017.5 |
| 20260831153512 | 24 | 261 | 17.7 | 24.1 | 0.00 | 0.33 | 0.33 | 47 | 1017.3 |
| 20260831153012 | 24 | 286 | 14.5 | 27.4 | 0.00 | 0.33 | 0.33 | 46 | 1017.2 |
| 20260831152512 | 25 | 169 | 19.3 | 29.0 | 0.00 | 0.33 | 0.33 | 47 | 1017.0 |
| 20260831152012 | 25 | 235 | 12.9 | 19.3 | 0.00 | 0.33 | 0.33 | 48 | 1016.9 |
| 20260831151513 | 25 | 261 | 16.1 | 22.5 | 0.00 | 0.33 | 0.33 | 47 | 1017.0 |
| 20260831151011 | 26 | 229 | 12.9 | 27.4 | 0.00 | 0.33 | 0.33 | 47 | 1017.0 |
| 20260831150513 | 26 | 275 | 16.1 | 24.1 | 0.00 | 0.33 | 0.33 | 46 | 1017.0 |
| 20260831150012 | 26 | 254 | 11.3 | 20.9 | 0.00 | 0.33 | 0.33 | 49 | 1016.9 |
| 20260831145512 | 26 | 234 | 14.5 | 29.0 | 0.00 | 0.33 | 0.33 | 49 | 1016.8 |
| 20260831145011 | 26 | 226 | 11.3 | 33.8 | 0.00 | 0.33 | 0.33 | 49 | 1016.8 |
| 20260831144511 | 26 | 248 | 12.9 | 30.6 | 0.00 | 0.33 | 0.33 | 51 | 1017.0 |
| 20260831144012 | 26 | 231 | 12.9 | 24.1 | 0.00 | 0.33 | 0.33 | 53 | 1016.9 |
| 20260831143512 | 25 | 5 | 12.9 | 30.6 | 0.00 | 0.33 | 0.33 | 53 | 1016.9 |
| 20260831143012 | 25 | 239 | 8.0 | 22.5 | 0.00 | 0.33 | 0.33 | 56 | 1016.8 |
| 20260831142512 | 25 | 243 | 11.3 | 27.4 | 0.00 | 0.33 | 0.33 | 56 | 1016.8 |
| 20260831142012 | 25 | 170 | 16.1 | 25.7 | 0.00 | 0.33 | 0.33 | 56 | 1016.8 |
| 20260831141511 | 25 | 220 | 9.7 | 20.9 | 0.00 | 0.33 | 0.33 | 57 | 1016.8 |
| 20260831141013 | 24 | 182 | 9.7 | 22.5 | 0.03 | 0.33 | 0.33 | 58 | 1016.8 |
| 20260831140512 | 24 | 291 | 12.9 | 29.0 | 0.03 | 0.33 | 0.33 | 59 | 1016.9 |
| 20260831140012 | 23 | 273 | 4.8 | 12.9 | 0.03 | 0.33 | 0.33 | 64 | 1016.9 |
| 20260831135513 | 23 | 240 | 8.0 | 19.3 | 0.03 | 0.33 | 0.33 | 64 | 1017.0 |
| 20260831135012 | 22 | 252 | 4.8 | 17.7 | 0.03 | 0.33 | 0.33 | 67 | 1017.2 |
| 20260831134512 | 22 | 256 | 6.4 | 14.5 | 0.03 | 0.33 | 0.33 | 71 | 1017.1 |
| 20260831134011 | 22 | 342 | 8.0 | 14.5 | 0.03 | 0.33 | 0.33 | 69 | 1017.3 |
| 20260831133512 | 22 | 227 | 6.4 | 12.9 | 0.03 | 0.33 | 0.33 | 71 | 1017.5 |
| 20260831133011 | 22 | 261 | 6.4 | 16.1 | 0.03 | 0.33 | 0.33 | 74 | 1017.5 |
| 20260831132511 | 22 | 221 | 6.4 | 12.9 | 0.03 | 0.33 | 0.33 | 73 | 1017.6 |
| 20260831132011 | 22 | 279 | 11.3 | 17.7 | 0.03 | 0.33 | 0.33 | 70 | 1017.6 |
| 20260831131512 | 22 | 246 | 20.9 | 32.2 | 0.03 | 0.33 | 0.33 | 64 | 1017.9 |
| 20260831131011 | 23 | 224 | 16.1 | 27.4 | 0.00 | 0.30 | 0.30 | 57 | 1017.9 |
| 20260831130512 | 23 | 304 | 12.9 | 22.5 | 0.00 | 0.30 | 0.30 | 55 | 1017.7 |
| 20260831130012 | 23 | 235 | 4.8 | 16.1 | 0.00 | 0.30 | 0.30 | 58 | 1017.5 |
| 20260831125511 | 23 | 214 | 12.9 | 22.5 | 0.00 | 0.30 | 0.30 | 54 | 1017.5 |
| 20260831125012 | 23 | 263 | 16.1 | 29.0 | 0.00 | 0.30 | 0.30 | 54 | 1017.5 |
| 20260831124512 | 23 | 248 | 11.3 | 25.7 | 0.00 | 0.30 | 0.30 | 53 | 1017.3 |
| 20260831124012 | 23 | 309 | 16.1 | 25.7 | 0.00 | 0.30 | 0.30 | 52 | 1017.3 |
| 20260831123512 | 24 | 246 | 9.7 | 20.9 | 0.00 | 0.30 | 0.30 | 51 | 1017.3 |
| 20260831123012 | 24 | 241 | 16.1 | 24.1 | 0.00 | 0.30 | 0.30 | 51 | 1017.2 |
| 20260831122512 | 25 | 219 | 14.5 | 30.6 | 0.00 | 0.30 | 0.30 | 49 | 1017.2 |
| 20260831122013 | 25 | 288 | 12.9 | 29.0 | 0.00 | 0.30 | 0.30 | 47 | 1017.0 |
| 20260831121512 | 25 | 216 | 17.7 | 27.4 | 0.00 | 0.30 | 0.30 | 47 | 1017.0 |
| 20260831121012 | 26 | 301 | 11.3 | 24.1 | 0.00 | 0.30 | 0.30 | 46 | 1016.9 |
| 20260831120512 | 26 | 217 | 8.0 | 22.5 | 0.00 | 0.30 | 0.30 | 47 | 1016.9 |
| 20260831120011 | 26 | 236 | 9.7 | 25.7 | 0.00 | 0.30 | 0.30 | 46 | 1016.9 |
| 20260831115511 | 25 | 231 | 16.1 | 27.4 | 0.00 | 0.30 | 0.30 | 44 | 1017.0 |
| 20260831115011 | 25 | 217 | 12.9 | 24.1 | 0.00 | 0.30 | 0.30 | 46 | 1017.0 |
| 20260831114512 | 25 | 252 | 11.3 | 22.5 | 0.00 | 0.30 | 0.30 | 47 | 1017.1 |
| 20260831114012 | 25 | 219 | 14.5 | 24.1 | 0.00 | 0.30 | 0.30 | 46 | 1017.3 |
| 20260831113511 | 25 | 247 | 11.3 | 25.7 | 0.00 | 0.30 | 0.30 | 49 | 1017.4 |
| 20260831113011 | 25 | 273 | 14.5 | 24.1 | 0.00 | 0.30 | 0.30 | 48 | 1017.4 |
| 20260831112512 | 25 | 250 | 12.9 | 27.4 | 0.00 | 0.30 | 0.30 | 47 | 1017.4 |
| 20260831112011 | 25 | 257 | 11.3 | 22.5 | 0.00 | 0.30 | 0.30 | 49 | 1017.3 |
| 20260831111511 | 25 | 236 | 12.9 | 24.1 | 0.00 | 0.30 | 0.30 | 49 | 1017.4 |
| 20260831111011 | 25 | 187 | 16.1 | 29.0 | 0.00 | 0.30 | 0.30 | 49 | 1017.4 |
| 20260831110511 | 25 | 208 | 17.7 | 37.0 | 0.00 | 0.30 | 0.30 | 50 | 1017.4 |
| 20260831110012 | 25 | 236 | 16.1 | 33.8 | 0.00 | 0.30 | 0.30 | 50 | 1017.5 |
| 20260831105512 | 25 | 244 | 14.5 | 30.6 | 0.00 | 0.30 | 0.30 | 49 | 1017.4 |
| 20260831105011 | 25 | 257 | 12.9 | 27.4 | 0.00 | 0.30 | 0.30 | 51 | 1017.3 |
| 20260831104512 | 25 | 264 | 11.3 | 30.6 | 0.00 | 0.30 | 0.30 | 52 | 1017.3 |
| 20260831104013 | 25 | 277 | 12.9 | 27.4 | 0.00 | 0.30 | 0.30 | 51 | 1017.3 |
| 20260831103512 | 24 | 201 | 11.3 | 22.5 | 0.00 | 0.30 | 0.30 | 52 | 1017.1 |
| 20260831103012 | 24 | 172 | 14.5 | 22.5 | 0.00 | 0.30 | 0.30 | 52 | 1017.2 |
| 20260831102512 | 24 | 255 | 14.5 | 27.4 | 0.00 | 0.30 | 0.30 | 53 | 1017.3 |
| 20260831102012 | 23 | 222 | 11.3 | 29.0 | 0.00 | 0.30 | 0.30 | 53 | 1017.2 |
| 20260831101512 | 23 | 244 | 12.9 | 24.1 | 0.00 | 0.30 | 0.30 | 54 | 1017.2 |
| 20260831101011 | 23 | 281 | 9.7 | 24.1 | 0.00 | 0.30 | 0.30 | 55 | 1017.3 |
| 20260831100511 | 23 | 132 | 11.3 | 22.5 | 0.00 | 0.30 | 0.30 | 56 | 1017.3 |
| 20260831100011 | 23 | 176 | 8.0 | 25.7 | 0.00 | 0.30 | 0.30 | 58 | 1017.4 |
| 20260831095511 | 22 | 194 | 11.3 | 29.0 | 0.00 | 0.30 | 0.30 | 59 | 1017.4 |
| 20260831095012 | 23 | 167 | 11.3 | 24.1 | 0.00 | 0.30 | 0.30 | 59 | 1017.5 |
| 20260831094511 | 22 | 179 | 11.3 | 22.5 | 0.00 | 0.30 | 0.30 | 60 | 1017.6 |
| 20260831094012 | 22 | 237 | 17.7 | 25.7 | 0.00 | 0.30 | 0.30 | 62 | 1017.6 |
| 20260831093511 | 21 | 162 | 11.3 | 25.7 | 0.00 | 0.30 | 0.30 | 64 | 1017.6 |
| 20260831093011 | 21 | 148 | 19.3 | 27.4 | 0.00 | 0.30 | 0.30 | 64 | 1017.5 |